Terminal Aerodrome Forecast
Issued by NWS

Home | Current Version | Previous Version | Text Only | Print | Product List | Glossary On
Versions: 1 2 3 4 5 6 7 8 9 10 11 12 13 14 15 16 17 18 19 20 21 22 23 24 25 26 27 28 29 30 31 32 33 34 35 36 37 38 39 40 41 42
000
FTUS45 KBOU 242321
TAFAPA
TAF
KAPA 242321Z 2500/2524 29014KT P6SM VCSH SCT070 BKN120
      TEMPO 2500/2501 29014G24KT -SHRA BKN070
     FM250200 29010KT P6SM SCT120 BKN200
     FM250500 23008KT P6SM SCT200
     FM251400 15006KT P6SM SCT200
     FM252000 15012KT P6SM FEW080 BKN140
     FM252200 15015KT P6SM VCTS SCT080CB BKN140
      TEMPO 2522/2524 VRB20G30KT -TSRA BKN080CB=

USA.gov is the U.S. government's official web portal to all federal, state and local government web resources and services.